createdAt,value
2022-12-18T00:02:04.812Z,117.50
2022-12-18T00:04:22.631Z,106.60
2022-12-18T00:06:36.305Z,98.40
2022-12-18T00:08:49.143Z,109.40
2022-12-18T00:11:08.926Z,93.80
2022-12-18T00:13:20.818Z,95.70
2022-12-18T00:15:35.475Z,99.20
2022-12-18T00:17:47.569Z,93.20
2022-12-18T00:19:59.258Z,92.00
2022-12-18T00:22:11.146Z,103.60
2022-12-18T00:24:23.141Z,90.70
2022-12-18T00:26:37.187Z,105.10
2022-12-18T00:28:49.587Z,107.90
2022-12-18T00:31:02.808Z,103.80
2022-12-18T00:33:14.909Z,114.40
2022-12-18T00:35:26.701Z,103.10
2022-12-18T00:37:38.794Z,108.90
2022-12-18T00:39:52.939Z,119.30
2022-12-18T00:42:24.293Z,127.00
2022-12-18T00:44:37.828Z,102.20
2022-12-18T00:46:50.739Z,117.60
2022-12-18T00:49:03.861Z,121.40
2022-12-18T00:51:16.057Z,124.60
2022-12-18T00:53:27.845Z,100.20
2022-12-18T00:55:42.707Z,102.30
2022-12-18T00:57:54.498Z,114.30
2022-12-18T01:00:08.434Z,115.00
2022-12-18T01:02:20.704Z,125.80
2022-12-18T01:04:33.710Z,126.80
2022-12-18T01:06:45.753Z,114.60
2022-12-18T01:08:57.645Z,132.90
2022-12-18T01:11:14.249Z,115.60
2022-12-18T01:13:26.756Z,127.30
2022-12-18T01:15:38.752Z,104.80
2022-12-18T01:17:53.611Z,98.30
2022-12-18T01:20:06.733Z,103.20
2022-12-18T01:22:18.425Z,101.40
2022-12-18T01:24:30.824Z,119.20
2022-12-18T01:26:42.865Z,112.30
2022-12-18T01:28:56.247Z,111.90
2022-12-18T01:31:20.443Z,106.80
2022-12-18T01:33:32.525Z,125.50
2022-12-18T01:35:45.136Z,106.90
2022-12-18T01:37:57.546Z,123.80
2022-12-18T01:40:09.954Z,113.90
2022-12-18T01:42:22.348Z,116.00
2022-12-18T01:44:56.872Z,114.40
2022-12-18T01:47:08.762Z,107.20
2022-12-18T01:49:20.654Z,119.80
2022-12-18T01:51:32.546Z,121.10
2022-12-18T01:53:46.282Z,115.40
2022-12-18T01:55:59.916Z,134.10
2022-12-18T01:58:12.423Z,125.70
2022-12-18T02:00:25.029Z,122.60
2022-12-18T02:02:37.197Z,136.00
2022-12-18T02:04:49.691Z,132.90
2022-12-18T02:07:27.435Z,126.70
2022-12-18T02:10:15.372Z,140.00
2022-12-18T02:17:33.340Z,109.20
2022-12-18T02:19:54.304Z,121.70
2022-12-18T02:22:38.700Z,128.10
2022-12-18T02:25:01.243Z,128.50
2022-12-18T02:27:14.405Z,135.50
2022-12-18T02:29:37.108Z,138.90
2022-12-18T02:32:00.469Z,124.40
2022-12-18T02:34:14.723Z,132.80
2022-12-18T02:36:29.974Z,123.10
2022-12-18T02:38:45.670Z,119.40
2022-12-18T02:40:59.550Z,119.00
2022-12-18T02:43:15.289Z,108.30
2022-12-18T02:45:27.342Z,120.20
2022-12-18T02:47:44.913Z,124.00
2022-12-18T02:52:25.594Z,120.50
2022-12-18T02:54:48.783Z,72.80
2022-12-18T02:57:16.207Z,102.10
2022-12-18T02:59:50.524Z,94.90
2022-12-18T03:02:15.360Z,93.30
2022-12-18T03:04:50.742Z,87.10
2022-12-18T03:07:09.000Z,91.00
2022-12-18T03:09:28.986Z,75.70
2022-12-18T03:12:03.718Z,79.10
2022-12-18T03:14:21.125Z,108.70
2022-12-18T03:16:36.041Z,93.60
2022-12-18T03:18:55.060Z,103.70
2022-12-18T03:23:37.417Z,76.60
2022-12-18T03:28:07.103Z,84.00
2022-12-18T03:30:19.662Z,100.90
2022-12-18T03:32:37.235Z,106.30
2022-12-18T03:34:53.009Z,106.50
2022-12-18T03:37:07.267Z,94.70
2022-12-18T03:39:21.002Z,109.40
2022-12-18T03:42:00.544Z,114.90
2022-12-18T03:44:31.481Z,94.80
2022-12-18T03:46:56.073Z,103.50
2022-12-18T03:49:24.042Z,105.40
2022-12-18T03:51:44.860Z,109.10
2022-12-18T03:54:03.688Z,88.90
2022-12-18T03:56:18.969Z,95.50
2022-12-18T03:58:34.548Z,102.30
2022-12-18T04:01:02.322Z,84.00
2022-12-18T04:03:15.894Z,89.00
2022-12-18T04:05:34.937Z,99.50
2022-12-18T04:07:49.659Z,105.80
2022-12-18T04:10:04.369Z,108.30
2022-12-18T04:12:16.518Z,111.20
2022-12-18T04:14:29.537Z,85.50
2022-12-18T04:16:41.641Z,99.60
2022-12-18T04:18:55.677Z,89.30
2022-12-18T04:21:09.415Z,102.30
2022-12-18T04:23:22.329Z,87.10
2022-12-18T04:25:35.142Z,99.10
2022-12-18T04:27:56.355Z,102.40
2022-12-18T04:30:09.276Z,95.30
2022-12-18T04:32:21.469Z,99.50
2022-12-18T04:34:33.978Z,114.70
2022-12-18T04:36:45.662Z,94.20
2022-12-18T04:38:58.785Z,106.40
2022-12-18T04:41:11.086Z,98.70
2022-12-18T04:43:25.888Z,113.80
2022-12-18T04:45:37.842Z,98.70
2022-12-18T04:47:49.733Z,98.20
2022-12-18T04:50:01.728Z,93.60
2022-12-18T04:52:13.518Z,94.60
2022-12-18T04:54:25.102Z,97.00
2022-12-18T04:56:37.097Z,100.70
2022-12-18T04:58:49.060Z,97.50
2022-12-18T05:01:01.189Z,94.80
2022-12-18T05:03:13.128Z,99.50
2022-12-18T05:05:25.179Z,100.70
2022-12-18T05:07:37.685Z,95.90
2022-12-18T05:09:49.374Z,95.40
2022-12-18T05:12:01.572Z,92.70
2022-12-18T05:14:13.670Z,108.30
2022-12-18T05:16:25.537Z,94.90
2022-12-18T05:18:37.765Z,102.60
2022-12-18T05:20:51.117Z,93.30
2022-12-18T05:23:02.875Z,88.30
2022-12-18T05:25:14.669Z,89.70
2022-12-18T05:27:26.456Z,91.60
2022-12-18T05:29:38.962Z,104.20
2022-12-18T05:31:51.109Z,74.80
2022-12-18T05:34:03.574Z,94.70
2022-12-18T05:36:15.870Z,101.40
2022-12-18T05:38:30.045Z,104.90
2022-12-18T05:40:44.610Z,102.70
2022-12-18T05:42:56.359Z,96.20
2022-12-18T05:45:09.070Z,95.70
2022-12-18T05:47:21.372Z,92.00
2022-12-18T05:49:32.956Z,82.60
2022-12-18T05:51:44.848Z,90.40
2022-12-18T05:53:56.617Z,90.80
2022-12-18T05:56:11.440Z,114.20
2022-12-18T05:58:23.123Z,96.50
2022-12-18T06:00:37.180Z,90.40
2022-12-18T06:02:49.080Z,94.80
2022-12-18T06:05:01.430Z,89.50
2022-12-18T06:07:13.214Z,83.80
2022-12-18T06:09:24.801Z,69.10
2022-12-18T06:11:37.920Z,81.00
2022-12-18T06:13:58.287Z,81.40
2022-12-18T06:16:11.697Z,98.00
2022-12-18T06:18:23.636Z,79.10
2022-12-18T06:20:37.678Z,96.40
2022-12-18T06:22:49.268Z,93.10
2022-12-18T06:25:02.074Z,76.90
2022-12-18T06:27:14.683Z,101.50
2022-12-18T06:29:26.272Z,169.30
2022-12-18T06:31:38.643Z,210.00
2022-12-18T06:33:50.363Z,115.40
2022-12-18T06:36:13.618Z,92.90
2022-12-18T06:38:25.616Z,90.00
2022-12-18T06:40:39.678Z,91.10
2022-12-18T06:42:51.550Z,87.80
2022-12-18T06:45:03.793Z,84.00
2022-12-18T06:47:15.640Z,92.70
2022-12-18T06:49:30.471Z,93.80
2022-12-18T06:51:43.008Z,94.80
2022-12-18T06:53:54.911Z,105.10
2022-12-18T06:56:10.643Z,102.60
2022-12-18T06:58:22.626Z,84.20
2022-12-18T07:00:34.207Z,94.70
2022-12-18T07:02:46.127Z,95.50
2022-12-18T07:04:58.079Z,104.40
2022-12-18T07:07:10.145Z,107.70
2022-12-18T07:09:21.939Z,102.80
2022-12-18T07:11:34.752Z,103.20
2022-12-18T07:13:47.054Z,85.90
2022-12-18T07:16:10.901Z,104.50
2022-12-18T07:18:27.323Z,109.20
2022-12-18T07:20:39.112Z,104.80
2022-12-18T07:22:56.043Z,108.60
2022-12-18T07:25:08.633Z,111.70
2022-12-18T07:27:20.422Z,95.70
2022-12-18T07:29:32.008Z,135.10
2022-12-18T07:31:44.060Z,153.00
2022-12-18T07:33:56.406Z,169.00
2022-12-18T07:36:10.576Z,147.00
2022-12-18T07:38:23.263Z,146.70
2022-12-18T07:40:35.084Z,127.50
2022-12-18T07:42:46.947Z,130.80
2022-12-18T07:45:03.052Z,148.80
2022-12-18T07:47:15.031Z,122.30
2022-12-18T07:49:26.822Z,122.80
2022-12-18T07:51:38.506Z,111.90
2022-12-18T07:53:52.454Z,126.20
2022-12-18T07:58:40.297Z,110.30
2022-12-18T08:00:53.382Z,116.10
2022-12-18T08:03:05.468Z,110.60
2022-12-18T08:05:18.532Z,87.10
2022-12-18T08:07:30.528Z,110.60
2022-12-18T08:09:43.241Z,94.40
2022-12-18T08:11:55.337Z,92.20
2022-12-18T08:14:07.024Z,116.70
2022-12-18T08:16:19.399Z,139.80
2022-12-18T08:18:36.953Z,127.40
2022-12-18T08:20:49.050Z,153.90
2022-12-18T08:23:00.840Z,175.40
2022-12-18T08:25:12.631Z,295.00
2022-12-18T08:27:31.462Z,194.30
2022-12-18T08:29:43.480Z,134.30
2022-12-18T08:31:55.495Z,114.00
2022-12-18T08:34:07.367Z,108.00
2022-12-18T08:36:20.282Z,112.90
2022-12-18T08:38:33.711Z,96.20
2022-12-18T08:40:45.398Z,98.70
2022-12-18T08:43:15.927Z,122.30
2022-12-18T08:45:28.538Z,114.30
2022-12-18T08:47:40.227Z,91.80
2022-12-18T08:49:51.914Z,93.50
2022-12-18T08:52:04.119Z,114.20
2022-12-18T08:54:16.209Z,97.10
2022-12-18T08:56:28.102Z,104.80
2022-12-18T08:58:40.035Z,89.10
2022-12-18T09:00:51.753Z,96.90
2022-12-18T09:03:04.085Z,84.60
2022-12-18T09:05:16.393Z,78.10
2022-12-18T09:07:28.076Z,83.90
2022-12-18T09:09:39.942Z,91.00
2022-12-18T09:11:51.656Z,84.50
2022-12-18T09:14:03.752Z,80.40
2022-12-18T09:16:17.118Z,81.80
2022-12-18T09:18:29.276Z,92.70
2022-12-18T09:20:41.577Z,85.00
2022-12-18T09:22:53.472Z,71.00
2022-12-18T09:25:08.538Z,93.50
2022-12-18T09:27:20.432Z,85.40
2022-12-18T09:29:33.244Z,105.80
2022-12-18T09:31:45.054Z,84.30
2022-12-18T09:33:57.851Z,111.90
2022-12-18T09:36:12.401Z,115.90
2022-12-18T09:38:24.498Z,100.20
2022-12-18T09:40:42.948Z,97.50
2022-12-18T09:45:16.333Z,121.50
2022-12-18T09:47:39.502Z,160.50
2022-12-18T09:49:59.185Z,181.60
2022-12-18T09:52:17.429Z,164.10
2022-12-18T09:56:46.433Z,174.90
2022-12-18T09:59:03.035Z,241.70
2022-12-18T10:01:28.982Z,186.10
2022-12-18T10:03:48.514Z,189.70
2022-12-18T10:06:24.896Z,148.60
2022-12-18T10:08:55.739Z,117.70
2022-12-18T10:11:29.333Z,137.60
2022-12-18T10:13:59.248Z,149.80
2022-12-18T10:16:44.627Z,104.80
2022-12-18T10:19:19.046Z,90.70
2022-12-18T10:22:01.454Z,88.40
2022-12-18T10:24:31.266Z,122.90
2022-12-18T10:26:45.221Z,140.40
2022-12-18T10:29:03.691Z,106.20
2022-12-18T10:31:20.239Z,148.10
2022-12-18T10:33:34.095Z,120.10
2022-12-18T10:35:48.135Z,108.50
2022-12-18T10:38:21.737Z,120.90
2022-12-18T10:40:48.685Z,125.50
2022-12-18T10:43:13.475Z,133.30
2022-12-18T10:45:25.061Z,103.70
2022-12-18T10:47:37.979Z,106.60
2022-12-18T10:49:53.975Z,98.90
2022-12-18T10:52:17.227Z,131.40
2022-12-18T10:54:36.247Z,108.00
2022-12-18T10:56:48.384Z,109.10
2022-12-18T10:59:05.130Z,116.30
2022-12-18T11:01:22.554Z,150.60
2022-12-18T11:03:40.119Z,120.70
2022-12-18T11:06:03.922Z,363.10
2022-12-18T11:08:24.440Z,859.50
2022-12-18T11:10:41.872Z,560.90
2022-12-18T11:12:53.931Z,435.60
2022-12-18T11:15:06.705Z,334.30
2022-12-18T11:17:27.049Z,445.90
2022-12-18T11:19:42.097Z,493.30
2022-12-18T11:21:53.821Z,289.60
2022-12-18T11:24:10.073Z,361.40
2022-12-18T11:26:22.919Z,258.40
2022-12-18T11:28:43.319Z,561.50
2022-12-18T11:31:35.289Z,375.40
2022-12-18T11:34:28.750Z,340.30
2022-12-18T11:36:47.536Z,179.50
2022-12-18T11:39:07.136Z,133.50
2022-12-18T11:41:48.999Z,131.20
2022-12-18T11:44:03.757Z,200.10
2022-12-18T11:46:26.340Z,151.90
2022-12-18T11:48:44.849Z,172.50
2022-12-18T11:50:59.814Z,101.20
2022-12-18T11:53:13.203Z,95.80
2022-12-18T11:55:41.110Z,92.40
2022-12-18T11:58:07.851Z,234.40
2022-12-18T12:00:31.897Z,336.90
2022-12-18T12:03:05.100Z,282.00
2022-12-18T12:05:34.834Z,244.20
2022-12-18T12:08:19.798Z,141.20
2022-12-18T12:10:54.017Z,150.50
2022-12-18T12:13:19.933Z,159.40
2022-12-18T12:15:43.090Z,146.10
2022-12-18T12:18:18.278Z,135.30
2022-12-18T12:20:59.204Z,163.80
2022-12-18T12:23:48.596Z,144.20
2022-12-18T12:26:07.845Z,125.10
2022-12-18T12:28:39.218Z,143.60
2022-12-18T12:31:21.626Z,279.40
2022-12-18T12:33:45.672Z,479.10
2022-12-18T12:36:04.426Z,369.30
2022-12-18T12:38:25.469Z,235.40
2022-12-18T12:41:00.485Z,230.20
2022-12-18T12:43:35.053Z,210.50
2022-12-18T12:46:01.435Z,184.40
2022-12-18T12:48:37.152Z,152.10
2022-12-18T12:50:51.281Z,158.60
2022-12-18T12:53:09.132Z,139.00
2022-12-18T12:55:25.379Z,136.10
2022-12-18T12:57:54.028Z,146.70
2022-12-18T13:00:18.124Z,143.70
2022-12-18T13:02:43.416Z,139.30
2022-12-18T13:05:21.684Z,126.20
2022-12-18T13:10:26.805Z,146.10
2022-12-18T13:13:01.127Z,137.20
2022-12-18T13:15:23.136Z,132.00
2022-12-18T13:17:35.951Z,123.40
2022-12-18T13:20:08.299Z,146.00
2022-12-18T13:22:29.354Z,195.10
2022-12-18T13:24:42.244Z,133.90
2022-12-18T13:26:55.679Z,120.30
2022-12-18T13:29:07.963Z,104.10
2022-12-18T13:31:42.285Z,130.90
2022-12-18T13:34:27.892Z,139.10
2022-12-18T13:36:42.025Z,160.60
2022-12-18T13:39:19.768Z,160.20
2022-12-18T13:41:36.531Z,280.30
2022-12-18T13:43:53.699Z,258.20
2022-12-18T13:48:39.370Z,188.20
2022-12-18T13:51:08.024Z,225.40
2022-12-18T13:53:32.309Z,486.60
2022-12-18T13:55:46.592Z,303.90
2022-12-18T13:58:06.971Z,305.50
2022-12-18T14:00:20.076Z,157.00
2022-12-18T14:02:34.275Z,113.80
2022-12-18T14:04:48.326Z,110.00
2022-12-18T14:07:07.161Z,144.90
2022-12-18T14:09:28.248Z,114.20
2022-12-18T14:11:47.030Z,96.80
2022-12-18T14:14:02.983Z,116.80
2022-12-18T14:16:18.120Z,111.80
2022-12-18T14:18:53.510Z,107.40
2022-12-18T14:21:08.041Z,167.00
2022-12-18T14:23:41.724Z,130.90
2022-12-18T14:25:54.662Z,175.40
2022-12-18T14:28:14.728Z,168.90
2022-12-18T14:30:33.829Z,131.60
2022-12-18T14:33:01.215Z,115.50
2022-12-18T14:35:14.767Z,114.40
2022-12-18T14:37:28.501Z,133.40
2022-12-18T14:39:40.087Z,176.50
2022-12-18T14:41:53.106Z,154.60
2022-12-18T14:44:09.802Z,143.30
2022-12-18T14:46:44.266Z,131.20
2022-12-18T14:48:58.434Z,129.40
2022-12-18T14:51:14.085Z,147.00
2022-12-18T14:53:57.638Z,172.10
2022-12-18T14:56:29.800Z,141.30
2022-12-18T14:58:50.493Z,126.10
2022-12-18T15:01:03.013Z,170.00
2022-12-18T15:03:22.086Z,179.00
2022-12-18T15:05:35.910Z,147.40
2022-12-18T15:07:49.340Z,132.20
2022-12-18T15:10:12.986Z,127.60
2022-12-18T15:12:35.405Z,98.90
2022-12-18T15:14:48.239Z,121.90
2022-12-18T15:17:30.977Z,96.80
2022-12-18T15:20:04.657Z,118.90
2022-12-18T15:22:21.542Z,101.70
2022-12-18T15:24:34.355Z,93.10
2022-12-18T15:26:46.452Z,123.50
2022-12-18T15:29:01.344Z,102.00
2022-12-18T15:31:13.479Z,109.00
2022-12-18T15:33:30.887Z,114.60
2022-12-18T15:35:46.841Z,98.50
2022-12-18T15:37:59.538Z,117.80
2022-12-18T15:40:20.336Z,95.30
2022-12-18T15:42:50.968Z,102.90
2022-12-18T15:45:02.859Z,116.10
2022-12-18T15:47:14.837Z,91.00
2022-12-18T15:49:27.052Z,118.20
2022-12-18T15:51:39.971Z,117.50
2022-12-18T15:53:55.689Z,130.40
2022-12-18T15:56:33.586Z,117.80
2022-12-18T15:58:46.066Z,111.40
2022-12-18T16:01:02.953Z,112.50
2022-12-18T16:03:17.455Z,135.80
2022-12-18T16:05:33.365Z,129.50
2022-12-18T16:07:52.131Z,136.80
2022-12-18T16:10:10.032Z,126.20
2022-12-18T16:12:26.802Z,114.60
2022-12-18T16:14:38.283Z,134.20
2022-12-18T16:16:56.525Z,119.70
2022-12-18T16:19:08.828Z,127.90
2022-12-18T16:21:20.774Z,137.40
2022-12-18T16:23:33.876Z,141.90
2022-12-18T16:25:49.412Z,146.40
2022-12-18T16:28:02.336Z,137.30
2022-12-18T16:30:21.625Z,152.50
2022-12-18T16:32:33.698Z,164.30
2022-12-18T16:34:46.926Z,140.00
2022-12-18T16:37:06.625Z,148.20
2022-12-18T16:39:26.376Z,167.90
2022-12-18T16:41:38.882Z,169.50
2022-12-18T16:43:55.105Z,172.40
2022-12-18T16:46:13.813Z,154.30
2022-12-18T16:48:26.947Z,181.40
2022-12-18T16:50:38.941Z,182.50
2022-12-18T16:53:04.865Z,134.50
2022-12-18T16:55:21.712Z,137.20
2022-12-18T16:57:34.760Z,131.60
2022-12-18T17:02:03.863Z,127.30
2022-12-18T17:04:53.688Z,122.10
2022-12-18T17:07:09.797Z,142.60
2022-12-18T17:09:25.969Z,116.80
2022-12-18T17:11:38.266Z,146.40
2022-12-18T17:13:49.954Z,137.40
2022-12-18T17:16:08.536Z,127.70
2022-12-18T17:18:24.521Z,135.50
2022-12-18T17:20:37.529Z,174.00
2022-12-18T17:22:52.783Z,167.60
2022-12-18T17:25:10.248Z,147.20
2022-12-18T17:27:34.902Z,159.80
2022-12-18T17:29:48.653Z,182.40
2022-12-18T17:32:01.143Z,166.10
2022-12-18T17:34:15.122Z,158.40
2022-12-18T17:36:31.198Z,154.70
2022-12-18T17:38:44.290Z,128.30
2022-12-18T17:41:04.475Z,122.70
2022-12-18T17:43:16.573Z,107.00
2022-12-18T17:45:29.080Z,117.10
2022-12-18T17:47:41.178Z,117.30
2022-12-18T17:53:43.558Z,110.80
2022-12-18T17:55:57.658Z,117.40
2022-12-18T17:58:09.406Z,133.70
2022-12-18T18:00:22.017Z,114.20
2022-12-18T18:02:33.782Z,109.10
2022-12-18T18:04:46.210Z,139.00
2022-12-18T18:06:57.838Z,105.10
2022-12-18T18:09:16.775Z,132.00
2022-12-18T18:11:49.591Z,117.10
2022-12-18T18:14:07.114Z,95.00
2022-12-18T18:16:19.194Z,125.10
2022-12-18T18:18:31.868Z,108.60
2022-12-18T18:20:43.965Z,124.50
2022-12-18T18:22:56.676Z,130.90
2022-12-18T18:25:09.593Z,120.00
2022-12-18T18:27:21.895Z,136.70
2022-12-18T18:29:34.402Z,142.90
2022-12-18T18:31:46.970Z,125.20
2022-12-18T18:33:59.005Z,133.80
2022-12-18T18:36:11.819Z,117.50
2022-12-18T18:38:23.711Z,125.80
2022-12-18T18:40:35.297Z,125.90
2022-12-18T18:42:48.212Z,136.40
2022-12-18T18:45:00.312Z,139.30
2022-12-18T18:47:13.020Z,139.10
2022-12-18T18:49:27.561Z,125.30
2022-12-18T18:51:41.003Z,111.60
2022-12-18T18:53:53.920Z,123.00
2022-12-18T18:56:45.542Z,122.70
2022-12-18T18:58:39.925Z,105.10
2022-12-18T19:00:57.510Z,100.80
2022-12-18T19:03:10.204Z,128.00
2022-12-18T19:05:23.028Z,127.80
2022-12-18T19:07:39.372Z,119.00
2022-12-18T19:09:56.210Z,116.70
2022-12-18T19:12:28.246Z,114.80
2022-12-18T19:14:42.430Z,103.20
2022-12-18T19:17:02.311Z,101.80
2022-12-18T19:19:23.753Z,118.90
2022-12-18T19:21:41.052Z,127.30
2022-12-18T19:23:56.482Z,113.80
2022-12-18T19:26:27.858Z,110.20
2022-12-18T19:32:24.686Z,115.70
2022-12-18T19:35:30.433Z,108.80
2022-12-18T19:37:52.312Z,95.20
2022-12-18T19:40:12.444Z,111.40
2022-12-18T19:44:45.361Z,107.70
2022-12-18T19:46:57.051Z,107.70
2022-12-18T19:49:17.455Z,127.10
2022-12-18T19:51:53.418Z,106.30
2022-12-18T19:56:46.725Z,111.00
2022-12-18T19:59:07.019Z,102.20
2022-12-18T20:01:32.329Z,116.30
2022-12-18T20:04:04.697Z,116.70
2022-12-18T20:06:33.845Z,115.10
2022-12-18T20:08:50.853Z,116.20
2022-12-18T20:11:03.463Z,110.30
2022-12-18T20:13:16.685Z,116.60
2022-12-18T20:15:29.546Z,106.80
2022-12-18T20:17:41.597Z,105.70
2022-12-18T20:19:53.385Z,121.20
2022-12-18T20:22:06.712Z,109.80
2022-12-18T20:24:18.707Z,119.00
2022-12-18T20:26:32.896Z,106.70
2022-12-18T20:28:53.761Z,113.50
2022-12-18T20:31:14.897Z,138.10
2022-12-18T20:33:37.140Z,116.40
2022-12-18T20:36:01.413Z,115.20
2022-12-18T20:38:24.779Z,96.70
2022-12-18T20:40:44.827Z,112.10
2022-12-18T20:42:56.616Z,133.50
2022-12-18T20:45:08.713Z,119.10
2022-12-18T20:47:48.972Z,130.20
2022-12-18T20:50:01.478Z,96.30
2022-12-18T20:52:25.487Z,116.60
2022-12-18T20:54:37.654Z,115.60
2022-12-18T20:56:50.587Z,123.00
2022-12-18T20:59:03.484Z,108.60
2022-12-18T21:01:19.025Z,137.80
2022-12-18T21:03:39.340Z,135.50
2022-12-18T21:06:03.037Z,116.50
2022-12-18T21:08:16.288Z,135.50
2022-12-18T21:10:47.106Z,122.20
2022-12-18T21:13:03.155Z,125.00
2022-12-18T21:15:24.032Z,145.40
2022-12-18T21:17:44.273Z,140.60
2022-12-18T21:20:01.140Z,143.40
2022-12-18T21:22:14.897Z,141.20
2022-12-18T21:24:29.062Z,133.00
2022-12-18T21:26:52.004Z,144.60
2022-12-18T21:29:08.620Z,148.50
2022-12-18T21:31:25.627Z,138.90
2022-12-18T21:33:39.915Z,152.60
2022-12-18T21:35:59.306Z,148.70
2022-12-18T21:38:11.869Z,152.90
2022-12-18T21:40:27.549Z,145.90
2022-12-18T21:43:01.881Z,157.70
2022-12-18T21:45:14.868Z,163.40
2022-12-18T21:47:27.691Z,168.30
2022-12-18T21:49:42.756Z,163.50
2022-12-18T21:52:02.450Z,167.30
2022-12-18T21:54:32.423Z,160.60
2022-12-18T21:57:56.260Z,135.10
2022-12-18T22:00:11.218Z,141.90
2022-12-18T22:02:32.068Z,167.90
2022-12-18T22:04:45.405Z,140.40
2022-12-18T22:07:29.828Z,148.20
2022-12-18T22:09:46.187Z,141.90
2022-12-18T22:12:02.554Z,178.00
2022-12-18T22:14:15.379Z,159.20
2022-12-18T22:16:30.127Z,157.70
2022-12-18T22:18:42.126Z,152.50
2022-12-18T22:21:06.610Z,158.00
2022-12-18T22:23:18.503Z,133.00
2022-12-18T22:25:30.598Z,171.90
2022-12-18T22:27:42.090Z,137.80
2022-12-18T22:30:20.745Z,138.70
2022-12-18T22:32:36.503Z,145.10
2022-12-18T22:34:49.175Z,152.20
2022-12-18T22:37:02.348Z,143.50
2022-12-18T22:39:21.345Z,154.70
2022-12-18T22:41:36.166Z,143.00
2022-12-18T22:43:48.673Z,169.30
2022-12-18T22:46:02.756Z,186.00
2022-12-18T22:48:15.192Z,157.10
2022-12-18T22:50:28.625Z,159.70
2022-12-18T22:52:41.129Z,139.20
2022-12-18T22:54:54.349Z,162.10
2022-12-18T22:57:06.517Z,174.20
2022-12-18T22:59:21.649Z,147.80
2022-12-18T23:01:33.801Z,166.40
2022-12-18T23:03:48.848Z,183.80
2022-12-18T23:06:08.853Z,157.00
2022-12-18T23:08:20.756Z,148.90
2022-12-18T23:10:33.162Z,148.00
2022-12-18T23:12:44.951Z,185.90
2022-12-18T23:14:56.743Z,153.10
2022-12-18T23:17:08.736Z,165.30
2022-12-18T23:19:21.244Z,134.10
2022-12-18T23:21:36.002Z,146.70
2022-12-18T23:23:49.123Z,187.50
2022-12-18T23:26:07.814Z,157.50
2022-12-18T23:30:32.582Z,143.50
2022-12-18T23:32:44.475Z,124.90
2022-12-18T23:34:56.265Z,156.30
2022-12-18T23:37:08.055Z,157.20
2022-12-18T23:39:29.092Z,153.10
2022-12-18T23:41:41.977Z,145.90
2022-12-18T23:43:54.586Z,141.60
2022-12-18T23:46:19.847Z,154.30
2022-12-18T23:48:31.583Z,149.90
2022-12-18T23:50:43.779Z,128.40
2022-12-18T23:52:57.209Z,134.10
2022-12-18T23:55:14.834Z,136.50
2022-12-18T23:57:26.931Z,136.50
2022-12-18T23:59:39.854Z,124.20
